sensor_id;sensor_type;location;lat;lon;timestamp;pressure;altitude;pressure_sealevel;temperature;humidity
10014;BME280;45684;48.358;10.746;2023-01-25T00:00:06;97674.31;;;1.52;100.00
10014;BME280;45684;48.358;10.746;2023-01-25T00:02:34;97669.78;;;1.53;100.00
10014;BME280;45684;48.358;10.746;2023-01-25T00:05:03;97669.34;;;1.56;100.00
10014;BME280;45684;48.358;10.746;2023-01-25T00:07:31;97665.44;;;1.59;100.00
10014;BME280;45684;48.358;10.746;2023-01-25T00:09:59;97657.50;;;1.52;100.00
10014;BME280;45684;48.358;10.746;2023-01-25T00:12:28;97662.16;;;1.57;100.00
10014;BME280;45684;48.358;10.746;2023-01-25T00:14:56;97662.16;;;1.57;100.00
10014;BME280;45684;48.358;10.746;2023-01-25T00:17:23;97668.97;;;1.52;100.00
10014;BME280;45684;48.358;10.746;2023-01-25T00:19:52;97666.31;;;1.52;100.00
10014;BME280;45684;48.358;10.746;2023-01-25T00:22:20;97659.13;;;1.53;100.00
10014;BME280;45684;48.358;10.746;2023-01-25T00:24:48;97667.13;;;1.53;100.00
10014;BME280;45684;48.358;10.746;2023-01-25T00:27:16;97665.22;;;1.60;100.00
10014;BME280;45684;48.358;10.746;2023-01-25T00:29:45;97666.69;;;1.56;100.00
10014;BME280;45684;48.358;10.746;2023-01-25T00:32:32;97667.13;;;1.53;100.00
10014;BME280;45684;48.358;10.746;2023-01-25T00:35:06;97669.50;;;1.61;100.00
10014;BME280;45684;48.358;10.746;2023-01-25T00:37:37;97662.47;;;1.67;100.00
10014;BME280;45684;48.358;10.746;2023-01-25T00:40:07;97666.94;;;1.73;100.00
10014;BME280;45684;48.358;10.746;2023-01-25T00:42:37;97660.84;;;1.66;100.00
10014;BME280;45684;48.358;10.746;2023-01-25T00:45:08;97660.63;;;1.67;100.00
10014;BME280;45684;48.358;10.746;2023-01-25T00:47:37;97663.94;;;1.63;100.00
10014;BME280;45684;48.358;10.746;2023-01-25T00:50:06;97661.75;;;1.60;100.00
10014;BME280;45684;48.358;10.746;2023-01-25T00:52:34;97660.13;;;1.59;100.00
10014;BME280;45684;48.358;10.746;2023-01-25T00:55:02;97652.28;;;1.64;100.00
10014;BME280;45684;48.358;10.746;2023-01-25T00:57:30;97657.88;;;1.74;100.00
10014;BME280;45684;48.358;10.746;2023-01-25T00:59:58;97663.41;;;1.72;100.00
10014;BME280;45684;48.358;10.746;2023-01-25T01:02:29;97644.56;;;1.74;100.00
10014;BME280;45684;48.358;10.746;2023-01-25T01:04:58;97648.84;;;1.75;100.00
10014;BME280;45684;48.358;10.746;2023-01-25T01:07:26;97649.28;;;1.72;100.00
10014;BME280;45684;48.358;10.746;2023-01-25T01:09:54;97642.31;;;1.71;100.00
10014;BME280;45684;48.358;10.746;2023-01-25T01:12:23;97640.28;;;1.73;100.00
10014;BME280;45684;48.358;10.746;2023-01-25T01:14:51;97638.19;;;1.75;100.00
10014;BME280;45684;48.358;10.746;2023-01-25T01:17:19;97633.22;;;1.78;100.00
10014;BME280;45684;48.358;10.746;2023-01-25T01:19:48;97637.94;;;1.76;100.00
10014;BME280;45684;48.358;10.746;2023-01-25T01:22:15;97638.09;;;1.82;100.00
10014;BME280;45684;48.358;10.746;2023-01-25T01:24:43;97644.03;;;1.84;100.00
10014;BME280;45684;48.358;10.746;2023-01-25T01:27:11;97642.63;;;1.81;100.00
10014;BME280;45684;48.358;10.746;2023-01-25T01:29:39;97640.19;;;1.79;100.00
10014;BME280;45684;48.358;10.746;2023-01-25T01:32:07;97641.66;;;1.75;100.00
10014;BME280;45684;48.358;10.746;2023-01-25T01:34:35;97640.84;;;1.75;100.00
10014;BME280;45684;48.358;10.746;2023-01-25T01:37:04;97635.38;;;1.70;100.00
10014;BME280;45684;48.358;10.746;2023-01-25T01:39:32;97634.09;;;1.72;100.00
10014;BME280;45684;48.358;10.746;2023-01-25T01:42:00;97634.03;;;1.79;100.00
10014;BME280;45684;48.358;10.746;2023-01-25T01:44:44;97628.31;;;1.75;100.00
10014;BME280;45684;48.358;10.746;2023-01-25T01:47:17;97641.00;;;1.80;100.00
10014;BME280;45684;48.358;10.746;2023-01-25T01:49:52;97635.78;;;1.85;100.00
10014;BME280;45684;48.358;10.746;2023-01-25T01:52:24;97627.50;;;1.75;100.00
10014;BME280;45684;48.358;10.746;2023-01-25T01:54:56;97625.88;;;1.74;100.00
10014;BME280;45684;48.358;10.746;2023-01-25T01:57:31;97628.56;;;1.74;100.00
10014;BME280;45684;48.358;10.746;2023-01-25T02:00:05;97631.44;;;1.72;100.00
10014;BME280;45684;48.358;10.746;2023-01-25T02:02:42;97631.59;;;1.77;100.00
10014;BME280;45684;48.358;10.746;2023-01-25T02:05:15;97627.88;;;1.78;100.00
10014;BME280;45684;48.358;10.746;2023-01-25T02:07:48;97625.06;;;1.73;100.00
10014;BME280;45684;48.358;10.746;2023-01-25T02:10:19;97633.66;;;1.75;100.00
10014;BME280;45684;48.358;10.746;2023-01-25T02:12:48;97624.84;;;1.75;100.00
10014;BME280;45684;48.358;10.746;2023-01-25T02:15:16;97620.47;;;1.81;100.00
10014;BME280;45684;48.358;10.746;2023-01-25T02:17:44;97633.13;;;1.85;100.00
10014;BME280;45684;48.358;10.746;2023-01-25T02:20:17;97625.38;;;1.84;100.00
10014;BME280;45684;48.358;10.746;2023-01-25T02:22:54;97624.41;;;1.78;100.00
10014;BME280;45684;48.358;10.746;2023-01-25T02:25:26;97629.13;;;1.76;100.00
10014;BME280;45684;48.358;10.746;2023-01-25T02:27:57;97633.81;;;1.81;100.00
10014;BME280;45684;48.358;10.746;2023-01-25T02:30:27;97630.47;;;1.85;100.00
10014;BME280;45684;48.358;10.746;2023-01-25T02:32:55;97641.00;;;1.80;100.00
10014;BME280;45684;48.358;10.746;2023-01-25T02:35:36;97639.94;;;1.81;100.00
10014;BME280;45684;48.358;10.746;2023-01-25T02:38:05;97628.25;;;1.82;100.00
10014;BME280;45684;48.358;10.746;2023-01-25T02:40:39;97635.66;;;1.80;100.00
10014;BME280;45684;48.358;10.746;2023-01-25T02:43:10;97635.66;;;1.80;100.00
10014;BME280;45684;48.358;10.746;2023-01-25T02:45:38;97628.31;;;1.75;100.00
10014;BME280;45684;48.358;10.746;2023-01-25T02:48:05;97623.94;;;1.81;100.00
10014;BME280;45684;48.358;10.746;2023-01-25T02:50:33;97622.56;;;1.78;100.00
10014;BME280;45684;48.358;10.746;2023-01-25T02:53:01;97628.69;;;1.79;100.00
10014;BME280;45684;48.358;10.746;2023-01-25T02:55:29;97627.75;;;1.73;100.00
10014;BME280;45684;48.358;10.746;2023-01-25T02:57:58;97627.28;;;1.76;100.00
10014;BME280;45684;48.358;10.746;2023-01-25T03:00:26;97623.66;;;1.71;100.00
10014;BME280;45684;48.358;10.746;2023-01-25T03:02:54;97617.88;;;1.74;100.00
10014;BME280;45684;48.358;10.746;2023-01-25T03:05:22;97620.69;;;1.79;100.00
10014;BME280;45684;48.358;10.746;2023-01-25T03:07:50;97617.75;;;1.69;100.00
10014;BME280;45684;48.358;10.746;2023-01-25T03:10:18;97612.84;;;1.66;100.00
10014;BME280;45684;48.358;10.746;2023-01-25T03:12:47;97613.91;;;1.65;100.00
10014;BME280;45684;48.358;10.746;2023-01-25T03:15:16;97615.91;;;1.69;100.00
10014;BME280;45684;48.358;10.746;2023-01-25T03:17:44;97609.16;;;1.67;100.00
10014;BME280;45684;48.358;10.746;2023-01-25T03:20:12;97618.63;;;1.63;100.00
10014;BME280;45684;48.358;10.746;2023-01-25T03:22:40;97619.38;;;1.70;100.00
10014;BME280;45684;48.358;10.746;2023-01-25T03:25:08;97611.94;;;1.72;100.00
10014;BME280;45684;48.358;10.746;2023-01-25T03:27:41;97613.50;;;1.79;100.00
10014;BME280;45684;48.358;10.746;2023-01-25T03:30:10;97616.41;;;1.78;100.00
10014;BME280;45684;48.358;10.746;2023-01-25T03:32:40;97609.53;;;1.70;100.00
10014;BME280;45684;48.358;10.746;2023-01-25T03:35:12;97603.38;;;1.70;100.00
10014;BME280;45684;48.358;10.746;2023-01-25T03:37:41;97594.19;;;1.66;100.00
10014;BME280;45684;48.358;10.746;2023-01-25T03:40:10;97591.75;;;1.64;100.00
10014;BME280;45684;48.358;10.746;2023-01-25T03:42:42;97601.00;;;1.62;100.00
10014;BME280;45684;48.358;10.746;2023-01-25T03:45:11;97589.75;;;1.60;100.00
10014;BME280;45684;48.358;10.746;2023-01-25T03:47:41;97594.56;;;1.69;100.00
10014;BME280;45684;48.358;10.746;2023-01-25T03:50:09;97603.38;;;1.70;100.00
10014;BME280;45684;48.358;10.746;2023-01-25T03:52:49;97593.41;;;1.77;100.00
10014;BME280;45684;48.358;10.746;2023-01-25T03:55:29;97597.44;;;1.68;100.00
10014;BME280;45684;48.358;10.746;2023-01-25T03:57:58;97591.75;;;1.64;100.00
10014;BME280;45684;48.358;10.746;2023-01-25T04:00:26;97593.16;;;1.67;100.00
10014;BME280;45684;48.358;10.746;2023-01-25T04:02:59;97585.81;;;1.62;100.00
10014;BME280;45684;48.358;10.746;2023-01-25T04:05:28;97587.31;;;1.58;100.00
10014;BME280;45684;48.358;10.746;2023-01-25T04:07:56;97586.50;;;1.58;100.00
10014;BME280;45684;48.358;10.746;2023-01-25T04:10:32;97585.81;;;1.62;100.00
10014;BME280;45684;48.358;10.746;2023-01-25T04:13:00;97589.91;;;1.65;100.00
10014;BME280;45684;48.358;10.746;2023-01-25T04:15:28;97586.28;;;1.59;100.00
10014;BME280;45684;48.358;10.746;2023-01-25T04:18:03;97593.66;;;1.57;100.00
10014;BME280;45684;48.358;10.746;2023-01-25T04:20:31;97584.81;;;1.63;100.00
10014;BME280;45684;48.358;10.746;2023-01-25T04:22:59;97580.50;;;1.62;100.00
10014;BME280;45684;48.358;10.746;2023-01-25T04:25:33;97573.16;;;1.58;100.00
10014;BME280;45684;48.358;10.746;2023-01-25T04:28:05;97570.34;;;1.52;100.00
10014;BME280;45684;48.358;10.746;2023-01-25T04:30:32;97569.25;;;1.60;100.00
10014;BME280;45684;48.358;10.746;2023-01-25T04:33:05;97557.41;;;1.56;100.00
10014;BME280;45684;48.358;10.746;2023-01-25T04:35:33;97562.28;;;1.59;100.00
10014;BME280;45684;48.358;10.746;2023-01-25T04:38:03;97560.63;;;1.58;100.00
10014;BME280;45684;48.358;10.746;2023-01-25T04:40:36;97559.69;;;1.52;100.00
10014;BME280;45684;48.358;10.746;2023-01-25T04:43:05;97559.69;;;1.52;100.00
10014;BME280;45684;48.358;10.746;2023-01-25T04:45:34;97550.44;;;1.55;100.00
10014;BME280;45684;48.358;10.746;2023-01-25T04:48:09;97552.31;;;1.55;100.00
10014;BME280;45684;48.358;10.746;2023-01-25T04:50:44;97550.16;;;1.45;100.00
10014;BME280;45684;48.358;10.746;2023-01-25T04:53:13;97559.13;;;1.50;100.00
10014;BME280;45684;48.358;10.746;2023-01-25T04:55:44;97563.84;;;1.48;100.00
10014;BME280;45684;48.358;10.746;2023-01-25T04:58:13;97553.97;;;1.49;100.00
10014;BME280;45684;48.358;10.746;2023-01-25T05:00:42;97562.81;;;1.49;100.00
10014;BME280;45684;48.358;10.746;2023-01-25T05:03:12;97562.22;;;1.47;100.00
10014;BME280;45684;48.358;10.746;2023-01-25T05:05:45;97559.31;;;1.49;100.00
10014;BME280;45684;48.358;10.746;2023-01-25T05:08:16;97563.13;;;1.41;100.00
10014;BME280;45684;48.358;10.746;2023-01-25T05:10:44;97564.34;;;1.39;100.00
10014;BME280;45684;48.358;10.746;2023-01-25T05:13:36;97561.84;;;1.44;100.00
10014;BME280;45684;48.358;10.746;2023-01-25T05:16:14;97552.75;;;1.33;100.00
10014;BME280;45684;48.358;10.746;2023-01-25T05:18:43;97548.38;;;1.39;100.00
10014;BME280;45684;48.358;10.746;2023-01-25T05:21:19;97545.19;;;1.30;100.00
10014;BME280;45684;48.358;10.746;2023-01-25T05:24:06;97557.84;;;1.35;100.00
10014;BME280;45684;48.358;10.746;2023-01-25T05:26:34;97553.31;;;1.35;100.00
10014;BME280;45684;48.358;10.746;2023-01-25T05:29:19;97552.50;;;1.35;100.00
10014;BME280;45684;48.358;10.746;2023-01-25T05:31:52;97545.56;;;1.34;100.00
10014;BME280;45684;48.358;10.746;2023-01-25T05:34:22;97543.84;;;1.39;100.00
10014;BME280;45684;48.358;10.746;2023-01-25T05:36:52;97543.66;;;1.41;100.00
10014;BME280;45684;48.358;10.746;2023-01-25T05:39:20;97537.81;;;1.32;100.00
10014;BME280;45684;48.358;10.746;2023-01-25T05:41:49;97535.00;;;1.27;100.00
10014;BME280;45684;48.358;10.746;2023-01-25T05:44:17;97539.00;;;1.36;100.00
10014;BME280;45684;48.358;10.746;2023-01-25T05:46:47;97537.19;;;1.30;100.00
10014;BME280;45684;48.358;10.746;2023-01-25T05:49:16;97531.00;;;1.36;100.00
10014;BME280;45684;48.358;10.746;2023-01-25T05:51:46;97528.63;;;1.28;100.00
10014;BME280;45684;48.358;10.746;2023-01-25T05:54:15;97529.19;;;1.30;100.00
10014;BME280;45684;48.358;10.746;2023-01-25T05:56:51;97521.31;;;1.23;100.00
10014;BME280;45684;48.358;10.746;2023-01-25T05:59:18;97526.03;;;1.21;100.00
10014;BME280;45684;48.358;10.746;2023-01-25T06:01:46;97529.44;;;1.28;100.00
10014;BME280;45684;48.358;10.746;2023-01-25T06:04:15;97526.78;;;1.28;100.00
10014;BME280;45684;48.358;10.746;2023-01-25T06:06:45;97522.47;;;1.27;100.00
10014;BME280;45684;48.358;10.746;2023-01-25T06:09:14;97523.88;;;1.30;100.00
10014;BME280;45684;48.358;10.746;2023-01-25T06:11:44;97523.28;;;1.28;100.00
10014;BME280;45684;48.358;10.746;2023-01-25T06:14:12;97523.53;;;1.26;100.00
10014;BME280;45684;48.358;10.746;2023-01-25T06:16:40;97538.09;;;1.24;100.00
10014;BME280;45684;48.358;10.746;2023-01-25T06:19:47;97525.53;;;1.31;100.00
10014;BME280;45684;48.358;10.746;2023-01-25T06:22:29;97535.38;;;1.31;100.00
10014;BME280;45684;48.358;10.746;2023-01-25T06:24:57;97532.00;;;1.35;100.00
10014;BME280;45684;48.358;10.746;2023-01-25T06:27:24;97528.47;;;1.23;100.00
10014;BME280;45684;48.358;10.746;2023-01-25T06:29:52;97530.09;;;1.24;100.00
10014;BME280;45684;48.358;10.746;2023-01-25T06:32:20;97529.88;;;1.25;100.00
10014;BME280;45684;48.358;10.746;2023-01-25T06:34:49;97528.63;;;1.28;100.00
10014;BME280;45684;48.358;10.746;2023-01-25T06:37:19;97532.25;;;1.34;100.00
10014;BME280;45684;48.358;10.746;2023-01-25T06:39:50;97536.84;;;1.26;100.00
10014;BME280;45684;48.358;10.746;2023-01-25T06:42:19;97525.53;;;1.31;100.00
10014;BME280;45684;48.358;10.746;2023-01-25T06:44:46;97526.53;;;1.30;100.00
10014;BME280;45684;48.358;10.746;2023-01-25T06:47:14;97517.59;;;1.24;100.00
10014;BME280;45684;48.358;10.746;2023-01-25T06:49:42;97526.25;;;1.20;100.00
10014;BME280;45684;48.358;10.746;2023-01-25T06:52:10;97517.81;;;1.23;100.00
10014;BME280;45684;48.358;10.746;2023-01-25T06:54:38;97512.34;;;1.18;100.00
10014;BME280;45684;48.358;10.746;2023-01-25T06:57:08;97500.22;;;1.22;100.00
10014;BME280;45684;48.358;10.746;2023-01-25T06:59:35;97508.88;;;1.17;100.00
10014;BME280;45684;48.358;10.746;2023-01-25T07:02:03;97505.75;;;1.20;100.00
10014;BME280;45684;48.358;10.746;2023-01-25T07:04:31;97499.03;;;1.18;100.00
10014;BME280;45684;48.358;10.746;2023-01-25T07:06:59;97499.03;;;1.18;100.00
10014;BME280;45684;48.358;10.746;2023-01-25T07:09:27;97497.84;;;1.14;100.00
10014;BME280;45684;48.358;10.746;2023-01-25T07:11:55;97499.59;;;1.20;100.00
10014;BME280;45684;48.358;10.746;2023-01-25T07:14:24;97490.22;;;1.17;100.00
10014;BME280;45684;48.358;10.746;2023-01-25T07:16:52;97495.91;;;1.21;100.00
10014;BME280;45684;48.358;10.746;2023-01-25T07:19:20;97495.47;;;1.24;100.00
10014;BME280;45684;48.358;10.746;2023-01-25T07:21:48;97489.56;;;1.22;100.00
10014;BME280;45684;48.358;10.746;2023-01-25T07:24:17;97485.41;;;1.26;100.00
10014;BME280;45684;48.358;10.746;2023-01-25T07:26:45;97493.97;;;1.28;100.00
10014;BME280;45684;48.358;10.746;2023-01-25T07:29:15;97491.69;;;1.32;100.00
10014;BME280;45684;48.358;10.746;2023-01-25T07:31:44;97485.75;;;1.30;100.00
10014;BME280;45684;48.358;10.746;2023-01-25T07:34:12;97483.56;;;1.26;100.00
10014;BME280;45684;48.358;10.746;2023-01-25T07:36:40;97492.00;;;1.23;100.00
10014;BME280;45684;48.358;10.746;2023-01-25T07:39:09;97485.41;;;1.26;100.00
10014;BME280;45684;48.358;10.746;2023-01-25T07:41:38;97495.47;;;1.24;100.00
10014;BME280;45684;48.358;10.746;2023-01-25T07:44:10;97493.22;;;1.21;100.00
10014;BME280;45684;48.358;10.746;2023-01-25T07:46:52;97480.09;;;1.26;100.00
10014;BME280;45684;48.358;10.746;2023-01-25T07:49:19;97475.91;;;1.30;100.00
10014;BME280;45684;48.358;10.746;2023-01-25T07:51:47;97473.72;;;1.27;100.00
10014;BME280;45684;48.358;10.746;2023-01-25T07:54:15;97465.13;;;1.25;100.00
10014;BME280;45684;48.358;10.746;2023-01-25T07:56:43;97469.88;;;1.23;100.00
10014;BME280;45684;48.358;10.746;2023-01-25T07:59:11;97475.19;;;1.23;100.00
10014;BME280;45684;48.358;10.746;2023-01-25T08:01:39;97482.66;;;1.33;100.00
10014;BME280;45684;48.358;10.746;2023-01-25T08:04:09;97479.56;;;1.36;100.00
10014;BME280;45684;48.358;10.746;2023-01-25T08:06:37;97485.47;;;1.38;100.00
10014;BME280;45684;48.358;10.746;2023-01-25T08:09:08;97490.56;;;1.39;100.00
10014;BME280;45684;48.358;10.746;2023-01-25T08:11:37;97488.13;;;1.38;100.00
10014;BME280;45684;48.358;10.746;2023-01-25T08:14:06;97485.56;;;1.31;100.00
10014;BME280;45684;48.358;10.746;2023-01-25T08:16:34;97492.75;;;1.31;100.00
10014;BME280;45684;48.358;10.746;2023-01-25T08:19:02;97481.56;;;1.22;100.00
10014;BME280;45684;48.358;10.746;2023-01-25T08:21:33;97489.22;;;1.30;100.00
10014;BME280;45684;48.358;10.746;2023-01-25T08:24:03;97480.09;;;1.26;100.00
10014;BME280;45684;48.358;10.746;2023-01-25T08:26:32;97481.47;;;1.28;100.00
10014;BME280;45684;48.358;10.746;2023-01-25T08:29:00;97485.41;;;1.26;100.00
10014;BME280;45684;48.358;10.746;2023-01-25T08:31:31;97486.66;;;1.23;100.00
10014;BME280;45684;48.358;10.746;2023-01-25T08:34:00;97477.75;;;1.30;100.00
10014;BME280;45684;48.358;10.746;2023-01-25T08:36:28;97488.34;;;1.36;100.00
10014;BME280;45684;48.358;10.746;2023-01-25T08:38:59;97485.31;;;1.33;100.00
10014;BME280;45684;48.358;10.746;2023-01-25T08:41:29;97481.47;;;1.28;100.00
10014;BME280;45684;48.358;10.746;2023-01-25T08:43:57;97470.94;;;1.34;100.00
10014;BME280;45684;48.358;10.746;2023-01-25T08:46:27;97478.81;;;1.28;100.00
10014;BME280;45684;48.358;10.746;2023-01-25T08:48:58;97479.19;;;1.32;100.00
10014;BME280;45684;48.358;10.746;2023-01-25T08:51:27;97469.69;;;1.36;100.00
10014;BME280;45684;48.358;10.746;2023-01-25T08:53:55;97466.66;;;1.33;100.00
10014;BME280;45684;48.358;10.746;2023-01-25T08:56:24;97461.56;;;1.31;100.00
10014;BME280;45684;48.358;10.746;2023-01-25T08:58:52;97457.50;;;1.28;100.00
10014;BME280;45684;48.358;10.746;2023-01-25T09:01:20;97454.28;;;1.38;100.00
10014;BME280;45684;48.358;10.746;2023-01-25T09:03:49;97459.47;;;1.33;100.00
10014;BME280;45684;48.358;10.746;2023-01-25T09:06:17;97454.72;;;1.35;100.00
10014;BME280;45684;48.358;10.746;2023-01-25T09:08:46;97459.63;;;1.38;100.00
10014;BME280;45684;48.358;10.746;2023-01-25T09:11:16;97457.31;;;1.42;100.00
10014;BME280;45684;48.358;10.746;2023-01-25T09:13:46;97456.50;;;1.41;100.00
10014;BME280;45684;48.358;10.746;2023-01-25T09:16:17;97456.16;;;1.38;100.00
10014;BME280;45684;48.358;10.746;2023-01-25T09:18:48;97463.47;;;1.42;100.00
10014;BME280;45684;48.358;10.746;2023-01-25T09:21:17;97458.72;;;1.44;100.00
10014;BME280;45684;48.358;10.746;2023-01-25T09:23:46;97458.44;;;1.34;100.00
10014;BME280;45684;48.358;10.746;2023-01-25T09:26:23;97454.06;;;1.40;100.00
10014;BME280;45684;48.358;10.746;2023-01-25T09:28:53;97452.00;;;1.42;100.00
10014;BME280;45684;48.358;10.746;2023-01-25T09:31:21;97454.72;;;1.35;100.00
10014;BME280;45684;48.358;10.746;2023-01-25T09:34:17;97444.06;;;1.35;100.00
10014;BME280;45684;48.358;10.746;2023-01-25T09:36:46;97453.72;;;1.36;100.00
10014;BME280;45684;48.358;10.746;2023-01-25T09:39:13;97456.88;;;1.45;100.00
10014;BME280;45684;48.358;10.746;2023-01-25T09:45:04;97445.84;;;1.41;100.00
10014;BME280;45684;48.358;10.746;2023-01-25T09:47:41;97446.66;;;1.42;100.00
10014;BME280;45684;48.358;10.746;2023-01-25T09:53:18;97445.38;;;1.44;100.00
10014;BME280;45684;48.358;10.746;2023-01-25T09:55:51;97452.56;;;1.44;100.00
10014;BME280;45684;48.358;10.746;2023-01-25T09:58:25;97439.91;;;1.39;100.00
10014;BME280;45684;48.358;10.746;2023-01-25T10:01:04;97440.91;;;1.45;100.00
10014;BME280;45684;48.358;10.746;2023-01-25T10:03:46;97441.69;;;1.45;100.00
10014;BME280;45684;48.358;10.746;2023-01-25T10:06:15;97438.00;;;1.46;100.00
10014;BME280;45684;48.358;10.746;2023-01-25T10:08:50;97435.63;;;1.38;100.00
10014;BME280;45684;48.358;10.746;2023-01-25T10:11:23;97429.50;;;1.38;100.00
10014;BME280;45684;48.358;10.746;2023-01-25T10:13:54;97429.25;;;1.39;100.00
10014;BME280;45684;48.358;10.746;2023-01-25T10:16:27;97425.09;;;1.43;100.00
10014;BME280;45684;48.358;10.746;2023-01-25T10:19:10;97431.84;;;1.46;100.00
10014;BME280;45684;48.358;10.746;2023-01-25T10:21:43;97429.19;;;1.46;100.00
10014;BME280;45684;48.358;10.746;2023-01-25T10:27:24;97422.63;;;1.30;100.00
10014;BME280;45684;48.358;10.746;2023-01-25T10:29:56;97416.97;;;1.38;100.00
10014;BME280;45684;48.358;10.746;2023-01-25T10:32:29;97406.56;;;1.37;100.00
10014;BME280;45684;48.358;10.746;2023-01-25T10:35:14;97413.94;;;1.35;100.00
10014;BME280;45684;48.358;10.746;2023-01-25T10:38:04;97411.41;;;1.40;100.00
10014;BME280;45684;48.358;10.746;2023-01-25T10:40:39;97406.56;;;1.37;100.00
10014;BME280;45684;48.358;10.746;2023-01-25T10:43:14;97398.09;;;1.40;100.00
10014;BME280;45684;48.358;10.746;2023-01-25T10:45:43;97388.84;;;1.42;100.00
10014;BME280;45684;48.358;10.746;2023-01-25T10:48:16;97394.31;;;1.47;100.00
10014;BME280;45684;48.358;10.746;2023-01-25T10:50:48;97390.38;;;1.50;100.00
10014;BME280;45684;48.358;10.746;2023-01-25T10:53:23;97383.50;;;1.42;100.00
10014;BME280;45684;48.358;10.746;2023-01-25T10:56:10;97374.03;;;1.46;100.00
10014;BME280;45684;48.358;10.746;2023-01-25T10:58:44;97374.59;;;1.48;100.00
10014;BME280;45684;48.358;10.746;2023-01-25T11:01:24;97374.03;;;1.46;100.00
10014;BME280;45684;48.358;10.746;2023-01-25T11:03:54;97364.97;;;1.47;100.00
10014;BME280;45684;48.358;10.746;2023-01-25T11:06:32;97367.28;;;1.44;100.00
10014;BME280;45684;48.358;10.746;2023-01-25T11:09:01;97364.06;;;1.42;100.00
10014;BME280;45684;48.358;10.746;2023-01-25T11:11:35;97356.88;;;1.42;100.00
10014;BME280;45684;48.358;10.746;2023-01-25T11:14:15;97364.72;;;1.37;100.00
10014;BME280;45684;48.358;10.746;2023-01-25T11:16:45;97356.47;;;1.27;100.00
10014;BME280;45684;48.358;10.746;2023-01-25T11:19:27;97345.97;;;1.32;100.00
10014;BME280;45684;48.358;10.746;2023-01-25T11:21:58;97357.41;;;1.33;100.00
10014;BME280;45684;48.358;10.746;2023-01-25T11:24:27;97351.97;;;1.39;100.00
10014;BME280;45684;48.358;10.746;2023-01-25T11:27:12;97338.53;;;1.34;100.00
10014;BME280;45684;48.358;10.746;2023-01-25T11:29:40;97342.25;;;1.33;100.00
10014;BME280;45684;48.358;10.746;2023-01-25T11:32:15;97338.78;;;1.44;100.00
10014;BME280;45684;48.358;10.746;2023-01-25T11:34:48;97334.63;;;1.48;100.00
10014;BME280;45684;48.358;10.746;2023-01-25T11:37:36;97327.78;;;1.52;100.00
10014;BME280;45684;48.358;10.746;2023-01-25T11:40:14;97322.47;;;1.52;100.00
10014;BME280;45684;48.358;10.746;2023-01-25T11:42:53;97326.19;;;1.51;100.00
10014;BME280;45684;48.358;10.746;2023-01-25T11:45:51;97321.91;;;1.50;100.00
10014;BME280;45684;48.358;10.746;2023-01-25T11:48:54;97315.75;;;1.50;100.00
10014;BME280;45684;48.358;10.746;2023-01-25T11:51:32;97310.75;;;1.53;100.00
10014;BME280;45684;48.358;10.746;2023-01-25T11:54:25;97296.84;;;1.51;100.00
10014;BME280;45684;48.358;10.746;2023-01-25T11:56:58;97294.44;;;1.50;100.00
10014;BME280;45684;48.358;10.746;2023-01-25T11:59:43;97282.28;;;1.54;100.00
10014;BME280;45684;48.358;10.746;2023-01-25T12:02:44;97284.59;;;1.50;100.00
10014;BME280;45684;48.358;10.746;2023-01-25T12:05:37;97277.63;;;1.49;100.00
10014;BME280;45684;48.358;10.746;2023-01-25T12:08:23;97267.44;;;1.46;100.00
10014;BME280;45684;48.358;10.746;2023-01-25T12:11:03;97268.81;;;1.37;100.00
10014;BME280;45684;48.358;10.746;2023-01-25T12:13:38;97264.03;;;1.39;100.00
10014;BME280;45684;48.358;10.746;2023-01-25T12:16:46;97257.69;;;1.52;100.00
10014;BME280;45684;48.358;10.746;2023-01-25T12:19:28;97246.22;;;1.51;100.00
10014;BME280;45684;48.358;10.746;2023-01-25T12:22:14;97244.00;;;1.48;100.00
10014;BME280;45684;48.358;10.746;2023-01-25T12:24:53;97241.13;;;1.50;100.00
10014;BME280;45684;48.358;10.746;2023-01-25T12:27:34;97244.59;;;1.50;100.00
10014;BME280;45684;48.358;10.746;2023-01-25T12:30:13;97236.69;;;1.44;100.00
10014;BME280;45684;48.358;10.746;2023-01-25T12:32:46;97231.50;;;1.37;100.00
10014;BME280;45684;48.358;10.746;2023-01-25T12:35:25;97230.78;;;1.30;100.00
10014;BME280;45684;48.358;10.746;2023-01-25T12:37:59;97225.69;;;1.28;100.00
10014;BME280;45684;48.358;10.746;2023-01-25T12:40:44;97218.50;;;1.29;100.00
10014;BME280;45684;48.358;10.746;2023-01-25T12:43:17;97213.19;;;1.29;100.00
10014;BME280;45684;48.358;10.746;2023-01-25T12:45:47;97204.13;;;1.30;100.00
10014;BME280;45684;48.358;10.746;2023-01-25T12:48:20;97203.69;;;1.33;100.00
10014;BME280;45684;48.358;10.746;2023-01-25T12:50:53;97204.41;;;1.40;100.00
10014;BME280;45684;48.358;10.746;2023-01-25T12:53:24;97201.84;;;1.45;100.00
10014;BME280;45684;48.358;10.746;2023-01-25T12:55:55;97204.97;;;1.42;100.00
10014;BME280;45684;48.358;10.746;2023-01-25T12:58:30;97202.44;;;1.36;100.00
10014;BME280;45684;48.358;10.746;2023-01-25T13:01:10;97197.44;;;1.27;100.00
10014;BME280;45684;48.358;10.746;2023-01-25T13:03:50;97204.16;;;1.42;100.00
10014;BME280;45684;48.358;10.746;2023-01-25T13:06:30;97199.66;;;1.31;100.00
10014;BME280;45684;48.358;10.746;2023-01-25T13:09:05;97194.09;;;1.32;100.00
10014;BME280;45684;48.358;10.746;2023-01-25T13:11:40;97192.69;;;1.30;100.00
10014;BME280;45684;48.358;10.746;2023-01-25T13:14:26;97178.78;;;1.27;100.00
10014;BME280;45684;48.358;10.746;2023-01-25T13:17:21;97186.53;;;1.29;100.00
10014;BME280;45684;48.358;10.746;2023-01-25T13:19:49;97184.81;;;1.23;100.00
10014;BME280;45684;48.358;10.746;2023-01-25T13:22:52;97180.16;;;1.30;100.00
10014;BME280;45684;48.358;10.746;2023-01-25T13:25:24;97178.78;;;1.27;100.00